createdAt,value
2018-04-20T00:00:22.065Z,14.89
2018-04-20T00:01:22.064Z,14.96
2018-04-20T00:02:22.064Z,14.82
2018-04-20T00:03:22.065Z,14.92
2018-04-20T00:04:22.065Z,14.89
2018-04-20T00:05:22.066Z,14.79
2018-04-20T00:06:22.066Z,14.88
2018-04-20T00:07:22.066Z,14.82
2018-04-20T00:08:22.067Z,14.82
2018-04-20T00:09:22.067Z,14.70
2018-04-20T00:10:22.067Z,14.79
2018-04-20T00:11:22.070Z,14.73
2018-04-20T00:12:22.068Z,14.77
2018-04-20T00:13:22.073Z,14.73
2018-04-20T00:14:22.070Z,14.55
2018-04-20T00:15:22.075Z,14.66
2018-04-20T00:16:22.072Z,14.63
2018-04-20T00:17:22.070Z,14.60
2018-04-20T00:18:22.070Z,14.63
2018-04-20T00:19:22.070Z,14.69
2018-04-20T00:20:22.071Z,14.63
2018-04-20T00:21:22.071Z,14.58
2018-04-20T00:22:22.071Z,14.59
2018-04-20T00:23:22.076Z,14.53
2018-04-20T00:24:22.073Z,14.54
2018-04-20T00:25:22.073Z,14.51
2018-04-20T00:26:22.074Z,14.55
2018-04-20T00:27:22.076Z,14.50
2018-04-20T00:28:22.075Z,14.48
2018-04-20T00:29:22.074Z,14.40
2018-04-20T00:30:22.073Z,14.41
2018-04-20T00:31:22.076Z,14.41
2018-04-20T00:32:22.074Z,14.45
2018-04-20T00:33:22.076Z,14.36
2018-04-20T00:34:22.075Z,14.41
2018-04-20T00:35:22.075Z,14.36
2018-04-20T00:36:22.075Z,14.36
2018-04-20T00:37:22.076Z,14.40
2018-04-20T00:38:22.079Z,14.37
2018-04-20T00:39:22.084Z,14.41
2018-04-20T00:40:22.079Z,14.26
2018-04-20T00:41:22.081Z,14.32
2018-04-20T00:42:22.077Z,14.30
2018-04-20T00:43:22.074Z,14.18
2018-04-20T00:44:22.075Z,14.23
2018-04-20T00:45:22.075Z,14.25
2018-04-20T00:46:22.077Z,14.25
2018-04-20T00:47:22.075Z,14.25
2018-04-20T00:48:22.078Z,14.26
2018-04-20T00:49:22.075Z,14.25
2018-04-20T00:50:22.075Z,14.23
2018-04-20T00:51:22.078Z,14.18
2018-04-20T00:52:22.076Z,14.23
2018-04-20T00:53:22.078Z,14.17
2018-04-20T00:54:22.076Z,14.22
2018-04-20T00:55:22.075Z,14.17
2018-04-20T00:56:22.081Z,14.18
2018-04-20T00:57:22.075Z,14.25
2018-04-20T00:58:22.073Z,14.20
2018-04-20T00:59:22.074Z,14.20
2018-04-20T01:00:22.074Z,14.25
2018-04-20T01:01:22.073Z,14.23
2018-04-20T01:02:22.074Z,14.23
2018-04-20T01:03:22.073Z,14.22
2018-04-20T01:04:22.072Z,14.14
2018-04-20T01:05:22.072Z,14.22
2018-04-20T01:06:22.071Z,14.08
2018-04-20T01:07:22.072Z,14.14
2018-04-20T01:08:22.071Z,14.10
2018-04-20T01:09:22.071Z,14.04
2018-04-20T01:10:22.070Z,14.14
2018-04-20T01:11:22.071Z,14.14
2018-04-20T01:12:22.125Z,14.10
2018-04-20T01:13:22.069Z,14.07
2018-04-20T01:14:22.069Z,14.03
2018-04-20T01:15:22.095Z,14.04
2018-04-20T01:16:22.070Z,13.93
2018-04-20T01:17:22.069Z,13.95
2018-04-20T01:18:22.067Z,13.92
2018-04-20T01:19:22.068Z,13.86
2018-04-20T01:20:22.068Z,13.79
2018-04-20T01:21:22.068Z,13.86
2018-04-20T01:22:22.068Z,13.75
2018-04-20T01:23:22.067Z,13.72
2018-04-20T01:24:22.070Z,13.68
2018-04-20T01:25:22.066Z,13.65
2018-04-20T01:26:22.070Z,13.70
2018-04-20T01:27:22.067Z,13.65
2018-04-20T01:28:22.068Z,13.72
2018-04-20T01:29:22.065Z,13.65
2018-04-20T01:30:22.064Z,13.77
2018-04-20T01:31:22.068Z,13.74
2018-04-20T01:32:22.062Z,13.75
2018-04-20T01:33:22.067Z,13.70
2018-04-20T01:34:22.061Z,13.75
2018-04-20T01:35:22.061Z,13.74
2018-04-20T01:36:22.061Z,13.78
2018-04-20T01:37:22.060Z,13.68
2018-04-20T01:38:22.059Z,13.68
2018-04-20T01:39:22.063Z,13.71
2018-04-20T01:40:22.058Z,13.67
2018-04-20T01:41:22.057Z,13.68
2018-04-20T01:42:22.058Z,13.74
2018-04-20T01:43:22.057Z,13.67
2018-04-20T01:44:22.055Z,13.71
2018-04-20T01:45:22.057Z,13.67
2018-04-20T01:46:22.056Z,13.62
2018-04-20T01:47:22.054Z,13.63
2018-04-20T01:48:22.053Z,13.65
2018-04-20T01:49:22.053Z,13.67
2018-04-20T01:50:22.052Z,13.63
2018-04-20T01:51:22.053Z,13.65
2018-04-20T01:52:22.051Z,13.60
2018-04-20T01:53:22.053Z,13.53
2018-04-20T01:54:22.050Z,13.53
2018-04-20T01:55:22.049Z,13.52
2018-04-20T01:56:22.057Z,13.52
2018-04-20T01:57:22.048Z,13.50
2018-04-20T01:58:22.048Z,13.47
2018-04-20T01:59:22.055Z,13.42
2018-04-20T02:00:22.047Z,13.53
2018-04-20T02:01:22.047Z,13.46
2018-04-20T02:02:22.044Z,13.33
2018-04-20T02:03:22.045Z,13.33
2018-04-20T02:04:22.045Z,13.35
2018-04-20T02:05:22.045Z,13.39
2018-04-20T02:06:22.042Z,13.37
2018-04-20T02:07:22.042Z,13.30
2018-04-20T02:08:22.046Z,13.35
2018-04-20T02:09:22.042Z,13.44
2018-04-20T02:10:22.043Z,13.38
2018-04-20T02:11:22.039Z,13.42
2018-04-20T02:12:22.041Z,13.33
2018-04-20T02:13:22.041Z,13.41
2018-04-20T02:14:22.037Z,13.37
2018-04-20T02:15:22.040Z,13.35
2018-04-20T02:16:22.042Z,13.44
2018-04-20T02:17:22.036Z,13.33
2018-04-20T02:18:22.035Z,13.33
2018-04-20T02:19:22.058Z,13.30
2018-04-20T02:20:22.034Z,13.28
2018-04-20T02:21:22.034Z,13.30
2018-04-20T02:22:22.032Z,13.20
2018-04-20T02:23:22.031Z,13.22
2018-04-20T02:24:22.032Z,13.27
2018-04-20T02:25:22.032Z,13.22
2018-04-20T02:26:22.029Z,13.27
2018-04-20T02:27:22.028Z,13.25
2018-04-20T02:28:22.033Z,13.20
2018-04-20T02:29:22.030Z,13.25
2018-04-20T02:30:22.031Z,13.19
2018-04-20T02:31:22.027Z,13.27
2018-04-20T02:32:22.026Z,13.18
2018-04-20T02:33:22.025Z,13.05
2018-04-20T02:34:22.023Z,13.09
2018-04-20T02:35:22.024Z,13.12
2018-04-20T02:36:22.075Z,13.12
2018-04-20T02:37:22.035Z,13.04
2018-04-20T02:38:22.022Z,13.12
2018-04-20T02:39:22.024Z,13.01
2018-04-20T02:40:22.028Z,13.01
2018-04-20T02:41:22.019Z,13.04
2018-04-20T02:42:22.027Z,13.13
2018-04-20T02:43:22.016Z,13.20
2018-04-20T02:44:22.017Z,13.03
2018-04-20T02:45:22.028Z,13.08
2018-04-20T02:46:22.013Z,13.19
2018-04-20T02:47:22.020Z,13.08
2018-04-20T02:48:22.012Z,13.03
2018-04-20T02:49:22.013Z,12.98
2018-04-20T02:50:22.012Z,13.18
2018-04-20T02:51:22.011Z,13.04
2018-04-20T02:52:22.009Z,13.12
2018-04-20T02:53:22.011Z,13.04
2018-04-20T02:54:22.007Z,13.05
2018-04-20T02:55:22.005Z,13.00
2018-04-20T02:56:22.005Z,13.04
2018-04-20T02:57:22.006Z,12.98
2018-04-20T02:58:22.003Z,12.95
2018-04-20T02:59:22.000Z,12.93
2018-04-20T03:00:21.999Z,12.95
2018-04-20T03:01:22.002Z,12.93
2018-04-20T03:02:21.996Z,13.01
2018-04-20T03:03:22.013Z,12.95
2018-04-20T03:04:22.004Z,12.87
2018-04-20T03:05:21.996Z,12.97
2018-04-20T03:06:21.991Z,12.94
2018-04-20T03:07:21.994Z,12.86
2018-04-20T03:08:21.989Z,12.85
2018-04-20T03:09:21.992Z,12.83
2018-04-20T03:10:21.999Z,12.83
2018-04-20T03:11:21.987Z,12.79
2018-04-20T03:12:21.991Z,12.76
2018-04-20T03:13:21.983Z,12.85
2018-04-20T03:14:21.992Z,12.80
2018-04-20T03:15:21.982Z,12.73
2018-04-20T03:16:21.986Z,12.73
2018-04-20T03:17:21.978Z,12.72
2018-04-20T03:18:36.742Z,12.73
2018-04-20T03:19:21.978Z,12.73
2018-04-20T03:20:21.976Z,12.67
2018-04-20T03:21:21.978Z,12.67
2018-04-20T03:22:21.990Z,12.60
2018-04-20T03:23:21.972Z,12.65
2018-04-20T03:24:21.971Z,12.61
2018-04-20T03:25:21.977Z,12.65
2018-04-20T03:26:21.969Z,12.54
2018-04-20T03:27:21.967Z,12.64
2018-04-20T03:28:21.968Z,12.55
2018-04-20T03:29:21.964Z,12.60
2018-04-20T03:30:21.980Z,12.64
2018-04-20T03:31:21.961Z,12.67
2018-04-20T03:32:21.960Z,12.67
2018-04-20T03:33:21.959Z,12.60
2018-04-20T03:34:21.955Z,12.61
2018-04-20T03:35:21.954Z,12.58
2018-04-20T03:36:21.952Z,12.64
2018-04-20T03:37:21.953Z,12.61
2018-04-20T03:38:21.948Z,12.62
2018-04-20T03:39:21.981Z,12.58
2018-04-20T03:40:21.946Z,12.65
2018-04-20T03:41:21.945Z,12.60
2018-04-20T03:42:21.943Z,12.62
2018-04-20T03:43:21.943Z,12.62
2018-04-20T03:44:21.943Z,12.65
2018-04-20T03:45:21.939Z,12.64
2018-04-20T03:46:21.946Z,12.65
2018-04-20T03:47:21.935Z,12.65
2018-04-20T03:48:21.934Z,12.62
2018-04-20T03:49:21.932Z,12.61
2018-04-20T03:50:21.930Z,12.58
2018-04-20T03:51:21.928Z,12.58
2018-04-20T03:52:21.927Z,12.64
2018-04-20T03:53:21.925Z,12.60
2018-04-20T03:54:21.925Z,12.61
2018-04-20T03:55:21.923Z,12.65
2018-04-20T03:56:21.976Z,12.65
2018-04-20T03:57:21.919Z,12.62
2018-04-20T03:58:21.917Z,12.58
2018-04-20T03:59:21.919Z,12.55
2018-04-20T04:00:21.919Z,12.57
2018-04-20T04:01:21.913Z,12.65
2018-04-20T04:02:21.911Z,12.58
2018-04-20T04:03:21.911Z,12.60
2018-04-20T04:04:21.908Z,12.47
2018-04-20T04:05:21.907Z,12.60
2018-04-20T04:06:21.905Z,12.50
2018-04-20T04:07:21.903Z,12.46
2018-04-20T04:08:21.901Z,12.47
2018-04-20T04:09:21.910Z,12.47
2018-04-20T04:10:21.898Z,12.50
2018-04-20T04:11:21.899Z,12.46
2018-04-20T04:12:21.929Z,12.32
2018-04-20T04:13:21.894Z,12.35
2018-04-20T04:14:21.892Z,12.32
2018-04-20T04:15:21.902Z,12.37
2018-04-20T04:16:21.890Z,12.39
2018-04-20T04:17:21.888Z,12.39
2018-04-20T04:18:21.885Z,12.43
2018-04-20T04:19:21.886Z,12.40
2018-04-20T04:20:21.883Z,12.43
2018-04-20T04:21:21.882Z,12.46
2018-04-20T04:22:21.878Z,12.47
2018-04-20T04:23:21.877Z,12.50
2018-04-20T04:24:21.877Z,12.42
2018-04-20T04:25:21.874Z,12.43
2018-04-20T04:26:21.922Z,12.49
2018-04-20T04:27:21.870Z,12.49
2018-04-20T04:28:21.874Z,12.49
2018-04-20T04:29:21.874Z,12.47
2018-04-20T04:30:21.865Z,12.49
2018-04-20T04:31:21.864Z,12.50
2018-04-20T04:32:21.875Z,12.49
2018-04-20T04:33:21.860Z,12.46
2018-04-20T04:34:21.861Z,12.61
2018-04-20T04:35:21.857Z,12.50
2018-04-20T04:36:21.860Z,12.40
2018-04-20T04:37:21.853Z,12.58
2018-04-20T04:38:21.859Z,12.60
2018-04-20T04:39:21.849Z,12.60
2018-04-20T04:40:21.879Z,12.58
2018-04-20T04:41:21.851Z,12.62
2018-04-20T04:42:21.844Z,12.67
2018-04-20T04:43:21.869Z,12.57
2018-04-20T04:44:21.841Z,12.62
2018-04-20T04:45:21.841Z,12.64
2018-04-20T04:46:21.838Z,12.68
2018-04-20T04:47:21.836Z,12.80
2018-04-20T04:48:21.847Z,12.80
2018-04-20T04:49:21.833Z,12.76
2018-04-20T04:50:21.833Z,12.87
2018-04-20T04:51:21.831Z,12.85
2018-04-20T04:52:21.830Z,12.91
2018-04-20T04:53:21.828Z,12.90
2018-04-20T04:54:21.824Z,12.94
2018-04-20T04:55:21.823Z,12.98
2018-04-20T04:56:21.825Z,12.98
2018-04-20T04:57:21.821Z,13.01
2018-04-20T04:58:21.825Z,13.09
2018-04-20T04:59:21.831Z,13.20
2018-04-20T05:00:21.816Z,13.28
2018-04-20T05:01:21.817Z,13.18
2018-04-20T05:02:21.818Z,13.31
2018-04-20T05:03:21.812Z,13.22
2018-04-20T05:04:21.811Z,13.19
2018-04-20T05:05:21.810Z,13.15
2018-04-20T05:06:21.831Z,13.25
2018-04-20T05:07:21.808Z,13.22
2018-04-20T05:08:21.806Z,13.23
2018-04-20T05:09:21.805Z,13.28
2018-04-20T05:10:21.803Z,13.23
2018-04-20T05:11:21.802Z,13.28
2018-04-20T05:12:21.802Z,13.28
2018-04-20T05:13:21.803Z,13.27
2018-04-20T05:14:21.801Z,13.37
2018-04-20T05:15:21.802Z,13.47
2018-04-20T05:16:21.797Z,13.54
2018-04-20T05:17:21.796Z,13.53
2018-04-20T05:18:21.796Z,13.56
2018-04-20T05:19:21.849Z,13.60
2018-04-20T05:20:21.793Z,13.62
2018-04-20T05:21:21.804Z,13.70
2018-04-20T05:22:21.792Z,13.68
2018-04-20T05:23:21.794Z,13.71
2018-04-20T05:24:21.792Z,13.71
2018-04-20T05:25:21.829Z,13.77
2018-04-20T05:26:21.788Z,13.79
2018-04-20T05:27:21.791Z,13.81
2018-04-20T05:28:21.787Z,13.83
2018-04-20T05:29:21.786Z,13.93
2018-04-20T05:30:21.786Z,13.93
2018-04-20T05:31:21.795Z,14.12
2018-04-20T05:32:21.784Z,14.20
2018-04-20T05:33:21.786Z,14.40
2018-04-20T05:34:21.782Z,14.55
2018-04-20T05:35:21.785Z,14.84
2018-04-20T05:36:21.794Z,15.04
2018-04-20T05:37:21.782Z,15.07
2018-04-20T05:38:21.783Z,14.89
2018-04-20T05:39:21.780Z,14.82
2018-04-20T05:40:21.780Z,14.77
2018-04-20T05:41:21.781Z,14.62
2018-04-20T05:42:21.779Z,14.60
2018-04-20T05:43:21.779Z,14.62
2018-04-20T05:44:21.779Z,14.45
2018-04-20T05:45:21.781Z,14.40
2018-04-20T05:46:21.781Z,14.44
2018-04-20T05:47:21.784Z,14.30
2018-04-20T05:48:21.782Z,14.29
2018-04-20T05:49:21.782Z,14.20
2018-04-20T05:50:21.778Z,14.11
2018-04-20T05:51:21.779Z,14.12
2018-04-20T05:52:21.779Z,14.14
2018-04-20T05:53:21.780Z,14.07
2018-04-20T05:54:21.780Z,13.97
2018-04-20T05:55:21.780Z,14.15
2018-04-20T05:56:21.777Z,14.15
2018-04-20T05:57:21.777Z,14.20
2018-04-20T05:58:21.783Z,14.32
2018-04-20T05:59:21.777Z,14.25
2018-04-20T06:00:21.776Z,14.28
2018-04-20T06:01:21.835Z,14.23
2018-04-20T06:02:21.778Z,14.32
2018-04-20T06:03:21.776Z,14.26
2018-04-20T06:04:21.778Z,14.23
2018-04-20T06:05:21.779Z,14.35
2018-04-20T06:06:21.775Z,14.22
2018-04-20T06:07:21.775Z,14.26
2018-04-20T06:08:21.776Z,14.33
2018-04-20T06:09:21.781Z,14.23
2018-04-20T06:10:21.806Z,14.26
2018-04-20T06:11:21.776Z,14.36
2018-04-20T06:12:21.774Z,14.37
2018-04-20T06:13:21.775Z,14.37
2018-04-20T06:14:21.773Z,14.32
2018-04-20T06:15:21.775Z,14.41
2018-04-20T06:16:21.776Z,14.43
2018-04-20T06:17:21.774Z,14.41
2018-04-20T06:18:21.778Z,14.28
2018-04-20T06:19:21.773Z,14.37
2018-04-20T06:20:21.821Z,14.36
2018-04-20T06:21:21.835Z,14.28
2018-04-20T06:22:21.774Z,14.37
2018-04-20T06:23:21.774Z,14.41
2018-04-20T06:24:21.772Z,14.32
2018-04-20T06:25:21.771Z,14.37
2018-04-20T06:26:21.816Z,14.40
2018-04-20T06:27:21.774Z,14.43
2018-04-20T06:28:21.778Z,14.37
2018-04-20T06:29:21.771Z,14.36
2018-04-20T06:30:21.769Z,14.45
2018-04-20T06:31:21.772Z,14.44
2018-04-20T06:32:21.775Z,14.45
2018-04-20T06:33:21.770Z,14.45
2018-04-20T06:34:21.768Z,14.51
2018-04-20T06:35:21.846Z,14.50
2018-04-20T06:36:21.984Z,14.48
2018-04-20T06:37:21.770Z,14.53
2018-04-20T06:38:21.842Z,14.47
2018-04-20T06:39:21.832Z,14.51
2018-04-20T06:40:21.767Z,14.50
2018-04-20T06:41:21.824Z,14.54
2018-04-20T06:42:21.765Z,14.53
2018-04-20T06:43:21.765Z,14.55
2018-04-20T06:44:21.768Z,14.58
2018-04-20T06:45:21.767Z,14.58
2018-04-20T06:46:21.767Z,14.65
2018-04-20T06:47:21.772Z,14.63
2018-04-20T06:48:21.764Z,14.68
2018-04-20T06:49:21.874Z,14.62
2018-04-20T06:50:21.764Z,14.68
2018-04-20T06:51:21.766Z,14.73
2018-04-20T06:52:21.831Z,14.72
2018-04-20T06:53:21.763Z,14.72
2018-04-20T06:54:21.780Z,14.81
2018-04-20T06:55:21.762Z,14.82
2018-04-20T06:56:21.762Z,14.88
2018-04-20T06:57:21.761Z,14.96
2018-04-20T06:58:21.762Z,14.96
2018-04-20T06:59:21.761Z,15.00
2018-04-20T07:00:21.764Z,15.02
2018-04-20T07:01:21.762Z,14.94
2018-04-20T07:02:21.761Z,15.07
2018-04-20T07:03:21.762Z,15.14
2018-04-20T07:04:21.774Z,15.09
2018-04-20T07:05:21.762Z,15.22
2018-04-20T07:06:21.761Z,15.27
2018-04-20T07:07:21.780Z,15.31
2018-04-20T07:08:21.764Z,15.27
2018-04-20T07:09:21.762Z,15.29
2018-04-20T07:10:21.761Z,15.29
2018-04-20T07:11:21.767Z,15.36
2018-04-20T07:12:21.764Z,15.46
2018-04-20T07:13:21.764Z,15.43
2018-04-20T07:14:21.767Z,15.55
2018-04-20T07:15:21.763Z,15.54
2018-04-20T07:16:21.763Z,15.61
2018-04-20T07:17:21.764Z,15.64
2018-04-20T07:18:21.762Z,15.70
2018-04-20T07:19:21.766Z,15.72
2018-04-20T07:20:21.801Z,15.73
2018-04-20T07:21:21.765Z,15.80
2018-04-20T07:22:21.767Z,15.82
2018-04-20T07:23:21.772Z,15.88
2018-04-20T07:24:21.766Z,15.83
2018-04-20T07:25:21.771Z,15.91
2018-04-20T07:26:21.767Z,15.92
2018-04-20T07:27:21.771Z,16.04
2018-04-20T07:28:21.768Z,16.04
2018-04-20T07:29:21.772Z,16.17
2018-04-20T07:30:21.777Z,16.20
2018-04-20T07:31:21.770Z,16.23
2018-04-20T07:32:21.776Z,16.29
2018-04-20T07:33:21.772Z,16.24
2018-04-20T07:34:21.775Z,16.38
2018-04-20T07:35:21.781Z,16.36
2018-04-20T07:36:21.794Z,16.50
2018-04-20T07:37:21.778Z,16.53
2018-04-20T07:38:21.776Z,16.54
2018-04-20T07:39:21.790Z,16.68
2018-04-20T07:40:21.781Z,16.61
2018-04-20T07:41:21.845Z,16.66
2018-04-20T07:42:21.797Z,16.72
2018-04-20T07:43:21.790Z,16.75
2018-04-20T07:44:21.788Z,16.81
2018-04-20T07:45:21.797Z,16.91
2018-04-20T07:46:21.818Z,16.96
2018-04-20T07:47:21.788Z,16.99
2018-04-20T07:48:21.814Z,17.01
2018-04-20T07:49:21.794Z,17.01
2018-04-20T07:50:21.845Z,17.06
2018-04-20T07:51:21.791Z,17.14
2018-04-20T07:52:21.797Z,17.15
2018-04-20T07:53:21.811Z,17.23
2018-04-20T07:54:21.802Z,17.24
2018-04-20T07:55:21.798Z,17.29
2018-04-20T07:56:21.801Z,17.34
2018-04-20T07:57:21.799Z,17.38
2018-04-20T07:58:21.803Z,17.54
2018-04-20T07:59:21.803Z,17.49
2018-04-20T08:00:21.817Z,17.49
2018-04-20T08:01:21.807Z,17.64
2018-04-20T08:02:21.811Z,17.54
2018-04-20T08:03:21.813Z,17.57
2018-04-20T08:04:21.817Z,17.68
2018-04-20T08:05:21.814Z,17.68
2018-04-20T08:06:21.814Z,17.68
2018-04-20T08:07:21.814Z,17.79
2018-04-20T08:08:21.847Z,17.83
2018-04-20T08:09:21.960Z,17.89
2018-04-20T08:10:21.819Z,17.86
2018-04-20T08:11:21.823Z,17.92
2018-04-20T08:12:21.841Z,17.92
2018-04-20T08:13:21.827Z,17.94
2018-04-20T08:14:21.835Z,17.97
2018-04-20T08:15:21.828Z,18.03
2018-04-20T08:16:21.835Z,18.00
2018-04-20T08:17:26.468Z,18.07
2018-04-20T08:18:21.837Z,18.10
2018-04-20T08:20:16.306Z,18.25
2018-04-20T08:21:16.219Z,18.29
2018-04-20T08:23:12.867Z,18.38
2018-04-20T08:24:10.601Z,18.37
2018-04-20T08:25:10.605Z,18.50
2018-04-20T08:26:10.610Z,18.53
2018-04-20T08:27:10.614Z,18.56
2018-04-20T08:28:10.612Z,18.70
2018-04-20T08:29:10.616Z,18.74
2018-04-20T08:30:10.621Z,18.93
2018-04-20T08:31:10.618Z,18.95
2018-04-20T08:32:10.627Z,18.99
2018-04-20T08:33:10.626Z,18.89
2018-04-20T08:34:10.665Z,19.08
2018-04-20T08:35:10.629Z,19.11
2018-04-20T08:36:11.032Z,19.09
2018-04-20T08:37:10.832Z,19.14
2018-04-20T08:38:10.636Z,19.22
2018-04-20T08:39:10.679Z,19.30
2018-04-20T08:40:13.324Z,19.36
2018-04-20T08:41:10.646Z,19.41
2018-04-20T08:43:06.246Z,19.58
2018-04-20T08:44:05.540Z,19.70
2018-04-20T08:45:59.970Z,19.91
2018-04-20T08:47:00.047Z,19.88
2018-04-20T08:48:54.300Z,20.07
2018-04-20T08:49:54.299Z,20.07
2018-04-20T08:51:48.802Z,20.24
2018-04-20T08:52:48.688Z,20.34
2018-04-20T08:54:44.065Z,20.39
2018-04-20T08:55:43.084Z,20.47
2018-04-20T08:57:37.763Z,20.50
2018-04-20T08:58:37.642Z,20.58
2018-04-20T09:00:32.036Z,20.74
2018-04-20T09:01:32.129Z,20.72
2018-04-20T09:03:26.501Z,20.95
2018-04-20T09:04:26.419Z,21.02
2018-04-20T09:06:20.822Z,21.18
2018-04-20T09:07:20.807Z,21.20
2018-04-20T09:09:15.234Z,21.22
2018-04-20T09:10:15.195Z,21.29
2018-04-20T09:12:09.585Z,21.29
2018-04-20T09:13:09.623Z,21.37
2018-04-20T09:15:04.210Z,21.39
2018-04-20T09:16:04.690Z,21.42
2018-04-20T09:17:58.464Z,21.55
2018-04-20T09:18:58.372Z,21.62
2018-04-20T09:20:52.797Z,21.62
2018-04-20T09:21:52.761Z,21.73
2018-04-20T09:23:47.166Z,21.88
2018-04-20T09:24:47.167Z,21.89
2018-04-20T09:26:41.602Z,21.98
2018-04-20T09:27:41.557Z,22.13
2018-04-20T09:29:36.042Z,22.13
2018-04-20T09:30:35.959Z,22.26
2018-04-20T09:32:30.344Z,22.22
2018-04-20T09:33:30.346Z,22.28
2018-04-20T09:35:24.791Z,22.38
2018-04-20T09:36:24.733Z,22.35
2018-04-20T09:38:19.124Z,22.39
2018-04-20T09:39:19.124Z,22.54
2018-04-20T09:41:13.578Z,22.48
2018-04-20T09:42:13.524Z,22.51
2018-04-20T09:44:07.944Z,22.60
2018-04-20T09:45:07.946Z,22.62
2018-04-20T09:47:02.484Z,22.65
2018-04-20T09:48:02.348Z,22.65
2018-04-20T09:49:58.680Z,22.70
2018-04-20T09:50:58.071Z,22.60
2018-04-20T09:52:53.303Z,22.66
2018-04-20T09:53:52.527Z,22.73
2018-04-20T09:55:46.912Z,22.78
2018-04-20T09:56:46.864Z,22.72
2018-04-20T09:58:41.302Z,22.84
2018-04-20T09:59:41.255Z,22.88
2018-04-20T10:01:35.636Z,22.91
2018-04-20T10:02:35.632Z,22.90
2018-04-20T10:04:30.240Z,23.00
2018-04-20T10:05:30.146Z,23.03
2018-04-20T10:07:24.532Z,23.02
2018-04-20T10:08:24.539Z,22.98
2018-04-20T10:10:18.968Z,23.17
2018-04-20T10:11:18.921Z,23.18
2018-04-20T10:13:13.358Z,23.25
2018-04-20T10:14:13.312Z,23.37
2018-04-20T10:16:07.703Z,23.36
2018-04-20T10:17:07.708Z,23.34
2018-04-20T10:19:07.565Z,23.37
2018-04-20T10:20:06.738Z,23.47
2018-04-20T10:22:01.135Z,23.44
2018-04-20T10:23:01.135Z,23.47
2018-04-20T10:24:55.743Z,23.54
2018-04-20T10:25:55.626Z,23.54
2018-04-20T10:27:50.085Z,23.55
2018-04-20T10:28:50.081Z,23.59
2018-04-20T10:30:44.464Z,23.58
2018-04-20T10:31:44.426Z,23.68
2018-04-20T10:33:38.840Z,23.74
2018-04-20T10:34:38.797Z,23.76
2018-04-20T10:36:33.350Z,23.71
2018-04-20T10:37:33.208Z,23.83
2018-04-20T10:39:27.598Z,23.93
2018-04-20T10:40:27.606Z,23.92
2018-04-20T10:42:22.518Z,24.02
2018-04-20T10:43:21.996Z,24.18
2018-04-20T10:45:16.387Z,24.23
2018-04-20T10:46:16.389Z,24.24
2018-04-20T10:48:10.838Z,24.17
2018-04-20T10:49:10.785Z,24.29
2018-04-20T10:51:05.174Z,24.28
2018-04-20T10:52:05.187Z,24.32
2018-04-20T10:53:59.617Z,24.33
2018-04-20T10:54:59.571Z,24.43
2018-04-20T10:56:53.971Z,24.33
2018-04-20T10:57:53.964Z,24.38
2018-04-20T10:59:48.475Z,24.40
2018-04-20T11:00:48.368Z,24.47
2018-04-20T11:02:42.817Z,24.63
2018-04-20T11:03:42.766Z,24.60
2018-04-20T11:05:37.159Z,24.66
2018-04-20T11:06:37.158Z,24.65
2018-04-20T11:08:31.642Z,24.80
2018-04-20T11:09:31.565Z,24.76
2018-04-20T11:11:25.981Z,24.84
2018-04-20T11:12:25.959Z,24.91
2018-04-20T11:14:20.421Z,24.96
2018-04-20T11:15:20.379Z,25.01
2018-04-20T11:17:14.880Z,25.01
2018-04-20T11:18:14.775Z,25.01
2018-04-20T11:20:09.168Z,25.01
2018-04-20T11:21:09.169Z,25.03
2018-04-20T11:23:03.739Z,25.03
2018-04-20T11:24:03.570Z,25.14
2018-04-20T11:25:57.958Z,25.11
2018-04-20T11:26:57.961Z,25.21
2018-04-20T11:28:52.648Z,25.17
2018-04-20T11:29:52.359Z,25.25
2018-04-20T11:31:46.787Z,25.25
2018-04-20T11:32:46.790Z,25.26
2018-04-20T11:34:41.289Z,25.32
2018-04-20T11:35:41.182Z,25.38
2018-04-20T11:37:35.610Z,25.43
2018-04-20T11:38:35.584Z,25.46
2018-04-20T11:40:29.956Z,25.43
2018-04-20T11:41:29.967Z,25.46
2018-04-20T11:43:24.424Z,25.55
2018-04-20T11:44:24.469Z,25.54
2018-04-20T11:46:25.759Z,25.65
2018-04-20T11:47:25.740Z,25.75
2018-04-20T11:49:20.100Z,25.81
2018-04-20T11:50:20.106Z,25.75
2018-04-20T11:52:14.630Z,25.96
2018-04-20T11:53:14.523Z,25.90
2018-04-20T11:55:11.581Z,25.90
2018-04-20T11:56:10.228Z,25.91
2018-04-20T11:58:04.723Z,25.90
2018-04-20T11:59:04.619Z,25.83
2018-04-20T12:00:59.013Z,25.90
2018-04-20T12:01:59.015Z,25.95
2018-04-20T12:03:53.489Z,26.00
2018-04-20T12:04:53.431Z,26.00
2018-04-20T12:06:47.862Z,25.99
2018-04-20T12:07:47.836Z,26.03
2018-04-20T12:09:42.279Z,26.07
2018-04-20T12:10:42.224Z,26.05
2018-04-20T12:12:36.682Z,26.05
2018-04-20T12:13:36.618Z,26.09
2018-04-20T12:15:31.159Z,26.05
2018-04-20T12:16:31.047Z,26.05
2018-04-20T12:18:25.459Z,26.10
2018-04-20T12:19:25.464Z,26.13
2018-04-20T12:21:20.008Z,26.15
2018-04-20T12:22:19.864Z,26.21
2018-04-20T12:24:14.275Z,26.18
2018-04-20T12:25:14.261Z,26.21
2018-04-20T12:27:08.743Z,26.23
2018-04-20T12:28:08.658Z,26.21
2018-04-20T12:30:03.053Z,26.36
2018-04-20T12:31:03.065Z,26.36
2018-04-20T12:32:57.560Z,26.45
2018-04-20T12:33:57.454Z,26.47
2018-04-20T12:35:51.892Z,26.55
2018-04-20T12:36:51.848Z,26.55
2018-04-20T12:38:46.255Z,26.63
2018-04-20T12:39:46.246Z,26.71
2018-04-20T12:41:40.690Z,26.73
2018-04-20T12:42:40.642Z,26.73
2018-04-20T12:44:35.040Z,26.60
2018-04-20T12:45:35.088Z,26.71
2018-04-20T12:47:29.642Z,26.74
2018-04-20T12:48:29.454Z,26.71
2018-04-20T12:50:23.925Z,26.68
2018-04-20T12:51:23.943Z,26.68
2018-04-20T12:53:18.372Z,26.73
2018-04-20T12:54:18.333Z,26.68
2018-04-20T12:56:13.332Z,26.73
2018-04-20T12:57:12.909Z,26.73
2018-04-20T12:59:07.327Z,26.70
2018-04-20T13:00:07.811Z,26.65
2018-04-20T13:02:01.937Z,26.71
2018-04-20T13:03:01.715Z,26.74
2018-04-20T13:04:56.101Z,26.75
2018-04-20T13:05:56.109Z,26.66
2018-04-20T13:07:50.618Z,26.83
2018-04-20T13:08:50.518Z,26.83
2018-04-20T13:10:44.916Z,26.92
2018-04-20T13:11:44.921Z,26.83
2018-04-20T13:13:39.348Z,26.97
2018-04-20T13:14:39.358Z,26.99
2018-04-20T13:16:33.757Z,27.11
2018-04-20T13:17:33.708Z,27.11
2018-04-20T13:19:28.100Z,27.17
2018-04-20T13:20:28.113Z,27.18
2018-04-20T13:22:22.574Z,27.15
2018-04-20T13:23:22.539Z,27.12
2018-04-20T13:25:17.047Z,27.08
2018-04-20T13:26:16.940Z,27.10
2018-04-20T13:28:11.394Z,27.14
2018-04-20T13:29:11.360Z,27.11
2018-04-20T13:31:06.677Z,27.17
2018-04-20T13:32:05.735Z,27.15
2018-04-20T13:34:00.127Z,27.22
2018-04-20T13:35:00.718Z,27.26
2018-04-20T13:36:54.656Z,27.22
2018-04-20T13:37:54.574Z,27.26
2018-04-20T13:39:49.432Z,27.26
2018-04-20T13:40:48.978Z,27.26
2018-04-20T13:42:43.376Z,27.22
2018-04-20T13:43:43.382Z,27.22
2018-04-20T13:45:38.352Z,27.26
2018-04-20T13:46:37.780Z,27.30
2018-04-20T13:48:33.596Z,27.37
2018-04-20T13:49:32.186Z,27.47
2018-04-20T13:51:26.685Z,27.40
2018-04-20T13:52:26.594Z,27.40
2018-04-20T13:54:21.018Z,27.47
2018-04-20T13:55:21.586Z,27.47
2018-04-20T13:57:15.386Z,27.48
2018-04-20T13:58:15.375Z,27.54
2018-04-20T14:00:14.673Z,27.48
2018-04-20T14:01:14.562Z,27.54
2018-04-20T14:03:19.461Z,27.51
2018-04-20T14:04:08.994Z,27.60
2018-04-20T14:06:03.784Z,27.65
2018-04-20T14:07:03.401Z,27.63
2018-04-20T14:08:58.625Z,27.77
2018-04-20T14:09:58.007Z,27.67
2018-04-20T14:11:52.249Z,27.58
2018-04-20T14:12:52.377Z,27.67
2018-04-20T14:14:46.623Z,27.55
2018-04-20T14:15:46.625Z,27.58
2018-04-20T14:17:45.861Z,27.60
2018-04-20T14:18:41.025Z,27.63
2018-04-20T14:20:35.532Z,27.51
2018-04-20T14:21:35.423Z,27.63
2018-04-20T14:23:31.427Z,27.63
2018-04-20T14:24:29.821Z,27.65
2018-04-20T14:26:24.920Z,27.68
2018-04-20T14:27:24.220Z,27.73
2018-04-20T14:29:18.707Z,27.67
2018-04-20T14:30:18.616Z,27.60
2018-04-20T14:32:13.045Z,27.59
2018-04-20T14:33:13.307Z,27.74
2018-04-20T14:35:07.490Z,27.68
2018-04-20T14:36:07.432Z,27.65
2018-04-20T14:38:01.831Z,27.71
2018-04-20T14:39:01.832Z,27.80
2018-04-20T14:40:01.894Z,27.78
2018-04-20T14:41:01.845Z,27.89
2018-04-20T14:42:01.853Z,27.75
2018-04-20T14:43:01.864Z,27.78
2018-04-20T14:44:01.915Z,27.80
2018-04-20T14:45:02.244Z,27.78
2018-04-20T14:46:01.884Z,27.75